createdAt,value
2019-01-17T00:00:08.073Z,13.80
2019-01-17T00:03:10.075Z,13.90
2019-01-17T00:06:01.614Z,13.80
2019-01-17T00:09:05.499Z,13.80
2019-01-17T00:12:12.470Z,13.90
2019-01-17T00:15:09.906Z,13.90
2019-01-17T00:18:10.738Z,13.90
2019-01-17T00:21:08.449Z,13.90
2019-01-17T00:24:02.966Z,13.90
2019-01-17T00:26:57.581Z,13.90
2019-01-17T00:29:49.615Z,13.90
2019-01-17T00:32:30.425Z,13.90
2019-01-17T00:35:17.746Z,13.90
2019-01-17T00:38:15.382Z,13.90
2019-01-17T00:41:19.055Z,13.90
2019-01-17T00:44:13.413Z,14.00
2019-01-17T00:47:04.543Z,13.90
2019-01-17T00:50:04.952Z,13.90
2019-01-17T00:53:05.651Z,13.90
2019-01-17T00:55:55.877Z,13.90
2019-01-17T00:58:46.242Z,13.90
2019-01-17T01:01:30.868Z,13.90
2019-01-17T01:04:20.975Z,13.90
2019-01-17T01:07:07.246Z,13.80
2019-01-17T01:10:03.767Z,13.80
2019-01-17T01:13:07.618Z,13.80
2019-01-17T01:16:07.087Z,13.80
2019-01-17T01:19:01.593Z,13.80
2019-01-17T01:21:51.827Z,13.80
2019-01-17T01:24:43.393Z,13.80
2019-01-17T01:27:47.215Z,13.80
2019-01-17T01:30:53.969Z,13.70
2019-01-17T01:33:44.065Z,13.70
2019-01-17T01:36:44.326Z,13.70
2019-01-17T01:39:45.007Z,13.70
2019-01-17T01:42:42.478Z,13.70
2019-01-17T01:45:40.207Z,13.70
2019-01-17T01:48:34.821Z,13.70
2019-01-17T01:51:25.189Z,13.70
2019-01-17T01:53:57.843Z,13.70
2019-01-17T01:56:30.458Z,13.70
2019-01-17T01:59:03.110Z,13.70
2019-01-17T02:01:35.803Z,13.70
2019-01-17T02:04:08.427Z,13.70
2019-01-17T02:06:41.037Z,13.70
2019-01-17T02:09:13.666Z,13.70
2019-01-17T02:11:46.287Z,13.70
2019-01-17T02:14:19.476Z,13.70
2019-01-17T02:16:52.083Z,13.80
2019-01-17T02:19:24.793Z,13.80
2019-01-17T02:21:57.410Z,13.80
2019-01-17T02:24:30.121Z,13.90
2019-01-17T02:27:02.755Z,13.90
2019-01-17T02:29:35.408Z,13.90
2019-01-17T02:32:08.114Z,13.90
2019-01-17T02:34:40.748Z,13.90
2019-01-17T02:37:13.398Z,13.90
2019-01-17T02:39:46.007Z,13.90
2019-01-17T02:42:18.650Z,13.90
2019-01-17T02:44:54.403Z,13.90
2019-01-17T02:47:27.146Z,13.90
2019-01-17T02:49:59.815Z,13.90
2019-01-17T02:52:32.418Z,13.90
2019-01-17T02:55:05.563Z,13.80
2019-01-17T02:57:38.183Z,13.90
2019-01-17T03:00:16.872Z,13.80
2019-01-17T03:02:49.487Z,13.80
2019-01-17T03:05:22.117Z,13.90
2019-01-17T03:07:54.744Z,13.80
2019-01-17T03:10:27.357Z,13.80
2019-01-17T03:12:59.975Z,13.80
2019-01-17T03:15:32.622Z,13.80
2019-01-17T03:18:05.253Z,13.80
2019-01-17T03:20:37.900Z,13.80
2019-01-17T03:23:10.576Z,13.70
2019-01-17T03:25:43.224Z,13.80
2019-01-17T03:28:15.836Z,13.80
2019-01-17T03:30:48.544Z,13.80
2019-01-17T03:33:21.154Z,13.80
2019-01-17T03:35:53.794Z,13.80
2019-01-17T03:38:26.437Z,13.90
2019-01-17T03:40:59.196Z,13.90
2019-01-17T03:43:31.849Z,13.90
2019-01-17T03:46:04.506Z,13.90
2019-01-17T03:48:37.091Z,13.90
2019-01-17T03:51:09.763Z,13.90
2019-01-17T03:53:42.360Z,13.90
2019-01-17T03:56:21.460Z,14.00
2019-01-17T03:58:49.291Z,14.00
2019-01-17T04:01:21.999Z,14.00
2019-01-17T04:03:54.654Z,14.00
2019-01-17T04:06:27.301Z,14.00
2019-01-17T04:08:59.914Z,14.00
2019-01-17T04:11:32.596Z,14.10
2019-01-17T04:14:05.220Z,14.10
2019-01-17T04:16:37.868Z,14.10
2019-01-17T04:19:10.486Z,14.10
2019-01-17T04:21:43.128Z,14.10
2019-01-17T04:24:15.755Z,14.10
2019-01-17T04:26:48.395Z,14.10
2019-01-17T04:29:20.978Z,14.10
2019-01-17T04:31:53.615Z,14.10
2019-01-17T04:34:26.272Z,14.10
2019-01-17T04:36:58.932Z,14.10
2019-01-17T04:39:31.527Z,14.10
2019-01-17T04:42:04.247Z,14.00
2019-01-17T04:44:36.862Z,14.00
2019-01-17T04:47:09.529Z,14.00
2019-01-17T04:49:42.216Z,14.00
2019-01-17T04:52:15.037Z,14.00
2019-01-17T04:54:47.678Z,14.00
2019-01-17T04:57:20.309Z,14.00
2019-01-17T04:59:52.994Z,14.00
2019-01-17T05:02:25.644Z,14.00
2019-01-17T05:04:58.358Z,14.00
2019-01-17T05:07:31.117Z,14.00
2019-01-17T05:10:03.814Z,14.00
2019-01-17T05:12:36.531Z,14.00
2019-01-17T05:15:09.519Z,14.00
2019-01-17T05:17:42.175Z,14.00
2019-01-17T05:20:16.592Z,14.00
2019-01-17T05:22:50.209Z,14.00
2019-01-17T05:25:22.833Z,14.00
2019-01-17T05:27:55.594Z,14.00
2019-01-17T05:30:28.180Z,14.00
2019-01-17T05:33:00.923Z,14.00
2019-01-17T05:35:33.563Z,14.00
2019-01-17T05:38:06.231Z,14.00
2019-01-17T05:40:38.820Z,14.00
2019-01-17T05:43:11.466Z,14.00
2019-01-17T05:45:44.096Z,14.00
2019-01-17T05:48:16.743Z,14.00
2019-01-17T05:50:49.443Z,14.00
2019-01-17T05:53:30.314Z,14.00
2019-01-17T05:56:02.916Z,14.00
2019-01-17T05:58:35.551Z,14.10
2019-01-17T06:01:08.180Z,14.00
2019-01-17T06:03:40.836Z,14.00
2019-01-17T06:06:13.471Z,14.00
2019-01-17T06:08:46.179Z,14.00
2019-01-17T06:11:18.944Z,14.10
2019-01-17T06:13:51.650Z,14.00
2019-01-17T06:16:24.289Z,14.00
2019-01-17T06:18:56.938Z,14.00
2019-01-17T06:21:29.558Z,14.00
2019-01-17T06:24:02.218Z,14.00
2019-01-17T06:26:34.848Z,14.00
2019-01-17T06:29:07.494Z,14.00
2019-01-17T06:31:40.096Z,14.00
2019-01-17T06:34:12.748Z,14.00
2019-01-17T06:36:45.387Z,14.00
2019-01-17T06:39:18.261Z,14.00
2019-01-17T06:41:51.193Z,14.00
2019-01-17T06:44:24.005Z,14.00
2019-01-17T06:46:56.648Z,14.00
2019-01-17T06:49:29.468Z,14.00
2019-01-17T06:52:03.275Z,14.00
2019-01-17T06:54:36.050Z,14.00
2019-01-17T06:57:08.690Z,14.00
2019-01-17T06:59:41.378Z,14.00
2019-01-17T07:02:14.017Z,14.00
2019-01-17T07:04:46.679Z,14.00
2019-01-17T07:07:19.454Z,14.00
2019-01-17T07:09:52.123Z,14.00
2019-01-17T07:12:24.753Z,14.00
2019-01-17T07:14:57.483Z,14.00
2019-01-17T07:17:30.116Z,14.00
2019-01-17T07:20:02.770Z,14.00
2019-01-17T07:22:35.404Z,14.00
2019-01-17T07:25:08.767Z,13.90
2019-01-17T07:27:41.389Z,13.90
2019-01-17T07:30:18.285Z,13.90
2019-01-17T07:32:54.993Z,14.00
2019-01-17T07:35:27.610Z,14.00
2019-01-17T07:38:00.211Z,14.00
2019-01-17T07:40:32.861Z,14.00
2019-01-17T07:43:05.482Z,14.00
2019-01-17T07:45:38.109Z,14.00
2019-01-17T07:48:10.794Z,14.00
2019-01-17T07:50:43.456Z,13.90
2019-01-17T07:53:16.085Z,13.90
2019-01-17T07:55:49.780Z,13.90
2019-01-17T07:58:22.410Z,14.00
2019-01-17T08:00:56.828Z,14.00
2019-01-17T08:03:29.433Z,13.90
2019-01-17T08:06:02.139Z,13.90
2019-01-17T08:08:34.769Z,13.90
2019-01-17T08:11:07.432Z,14.00
2019-01-17T08:13:40.076Z,13.90
2019-01-17T08:16:12.931Z,13.90
2019-01-17T08:18:45.591Z,14.00
2019-01-17T08:21:18.355Z,13.90
2019-01-17T08:23:51.075Z,14.00
2019-01-17T08:26:23.697Z,14.00
2019-01-17T08:28:56.335Z,14.00
2019-01-17T08:31:28.942Z,14.00
2019-01-17T08:34:01.595Z,14.00
2019-01-17T08:36:34.208Z,14.00
2019-01-17T08:39:09.715Z,14.00
2019-01-17T08:41:42.316Z,14.00
2019-01-17T08:44:14.966Z,14.00
2019-01-17T08:46:47.635Z,14.00
2019-01-17T08:49:20.257Z,14.00
2019-01-17T08:51:53.056Z,13.90
2019-01-17T08:54:25.694Z,13.90
2019-01-17T08:56:58.271Z,13.90
2019-01-17T08:59:30.886Z,13.90
2019-01-17T09:02:03.518Z,13.90
2019-01-17T09:04:36.175Z,13.90
2019-01-17T09:07:08.762Z,13.90
2019-01-17T09:09:41.397Z,13.90
2019-01-17T09:12:13.993Z,13.90
2019-01-17T09:14:46.653Z,13.90
2019-01-17T09:17:19.281Z,13.90
2019-01-17T09:19:51.903Z,13.90
2019-01-17T09:22:24.545Z,13.90
2019-01-17T09:24:58.247Z,13.90
2019-01-17T09:27:30.856Z,13.90
2019-01-17T09:30:03.488Z,13.90
2019-01-17T09:32:37.632Z,13.90
2019-01-17T09:35:11.735Z,13.90
2019-01-17T09:37:44.448Z,14.00
2019-01-17T09:40:19.694Z,14.00
2019-01-17T09:42:52.359Z,14.10
2019-01-17T09:45:25.003Z,14.10
2019-01-17T09:47:57.608Z,14.10
2019-01-17T09:50:30.258Z,14.10
2019-01-17T09:53:02.854Z,14.10
2019-01-17T09:55:35.501Z,14.10
2019-01-17T09:58:08.103Z,14.10
2019-01-17T10:00:40.738Z,14.10
2019-01-17T10:03:13.534Z,14.10
2019-01-17T10:05:46.203Z,14.20
2019-01-17T10:08:18.939Z,14.20
2019-01-17T10:10:51.592Z,14.20
2019-01-17T10:13:24.349Z,14.20
2019-01-17T10:16:29.040Z,14.20
2019-01-17T10:20:17.254Z,14.20
2019-01-17T10:23:52.104Z,14.20
2019-01-17T10:27:14.767Z,14.20
2019-01-17T10:30:33.037Z,14.20
2019-01-17T10:33:54.924Z,14.20
2019-01-17T10:37:32.095Z,14.20
2019-01-17T10:41:09.900Z,14.10
2019-01-17T10:44:29.759Z,14.10
2019-01-17T10:48:27.934Z,14.20
2019-01-17T10:51:51.049Z,14.20
2019-01-17T10:55:04.392Z,14.20
2019-01-17T10:57:48.782Z,14.20
2019-01-17T11:01:21.891Z,14.20
2019-01-17T11:04:56.721Z,14.20
2019-01-17T11:09:03.156Z,14.20
2019-01-17T11:13:07.043Z,14.30
2019-01-17T11:16:58.691Z,14.30
2019-01-17T11:20:18.624Z,14.20
2019-01-17T11:23:50.731Z,14.30
2019-01-17T11:27:43.921Z,14.20
2019-01-17T11:31:06.496Z,14.20
2019-01-17T11:34:19.911Z,14.20
2019-01-17T11:37:31.485Z,14.20
2019-01-17T11:41:04.934Z,14.20
2019-01-17T11:44:29.467Z,14.20
2019-01-17T11:48:00.432Z,14.20
2019-01-17T11:51:26.265Z,14.20
2019-01-17T11:54:49.329Z,14.20
2019-01-17T11:57:50.015Z,14.30
2019-01-17T12:01:09.659Z,14.30
2019-01-17T12:04:27.908Z,14.30
2019-01-17T12:07:03.334Z,14.30
2019-01-17T12:09:35.996Z,14.20
2019-01-17T12:12:08.845Z,14.20
2019-01-17T12:14:41.524Z,14.20
2019-01-17T12:17:14.274Z,14.20
2019-01-17T12:19:46.966Z,14.20
2019-01-17T12:22:19.609Z,14.20
2019-01-17T12:24:52.398Z,14.30
2019-01-17T12:27:25.190Z,14.30
2019-01-17T12:29:57.802Z,14.30
2019-01-17T12:32:30.405Z,14.30
2019-01-17T12:35:03.086Z,14.20
2019-01-17T12:37:35.796Z,14.30
2019-01-17T12:40:11.183Z,14.20
2019-01-17T12:42:43.911Z,14.20
2019-01-17T12:45:16.658Z,14.20
2019-01-17T12:47:49.293Z,14.10
2019-01-17T12:50:21.976Z,14.10
2019-01-17T12:52:54.605Z,14.10
2019-01-17T12:55:27.211Z,14.10
2019-01-17T12:57:59.822Z,14.10
2019-01-17T13:00:32.431Z,14.10
2019-01-17T13:03:05.045Z,14.10
2019-01-17T13:05:37.709Z,14.10
2019-01-17T13:08:10.321Z,14.10
2019-01-17T13:10:43.010Z,14.20
2019-01-17T13:13:15.592Z,14.10
2019-01-17T13:15:48.287Z,14.10
2019-01-17T13:18:21.000Z,14.10
2019-01-17T13:20:53.603Z,14.10
2019-01-17T13:23:27.840Z,14.10
2019-01-17T13:26:02.029Z,14.10
2019-01-17T13:28:34.643Z,14.20
2019-01-17T13:31:07.241Z,14.10
2019-01-17T13:33:39.872Z,14.10
2019-01-17T13:36:13.133Z,14.10
2019-01-17T13:38:45.883Z,14.10
2019-01-17T13:41:18.552Z,14.20
2019-01-17T13:43:51.374Z,14.20
2019-01-17T13:46:23.944Z,14.20
2019-01-17T13:48:56.617Z,14.20
2019-01-17T13:51:29.198Z,14.20
2019-01-17T13:54:01.834Z,14.20
2019-01-17T13:56:34.755Z,14.20
2019-01-17T13:59:07.399Z,14.20
2019-01-17T14:01:40.032Z,14.20
2019-01-17T14:04:12.830Z,14.10
2019-01-17T14:06:45.486Z,14.10
2019-01-17T14:09:18.126Z,14.20
2019-01-17T14:11:50.750Z,14.10
2019-01-17T14:14:23.380Z,14.10
2019-01-17T14:16:55.961Z,14.10
2019-01-17T14:19:35.085Z,14.00
2019-01-17T14:22:08.745Z,14.10
2019-01-17T14:24:42.398Z,14.00
2019-01-17T14:27:15.033Z,14.00
2019-01-17T14:29:47.658Z,14.00
2019-01-17T14:32:20.241Z,14.10
2019-01-17T14:34:52.955Z,14.10
2019-01-17T14:37:25.540Z,14.10
2019-01-17T14:39:58.174Z,14.10
2019-01-17T14:42:30.756Z,14.10
2019-01-17T14:45:03.375Z,14.10
2019-01-17T14:47:35.955Z,14.10
2019-01-17T14:50:12.294Z,14.10
2019-01-17T14:52:45.103Z,14.10
2019-01-17T14:55:17.821Z,14.10
2019-01-17T14:57:50.470Z,14.10
2019-01-17T15:00:29.672Z,14.10
2019-01-17T15:03:02.927Z,14.10
2019-01-17T15:05:35.548Z,14.10
2019-01-17T15:08:08.210Z,14.10
2019-01-17T15:10:42.552Z,14.10
2019-01-17T15:13:16.130Z,14.10
2019-01-17T15:15:51.396Z,14.10
2019-01-17T15:18:23.941Z,14.10
2019-01-17T15:20:56.587Z,14.10
2019-01-17T15:23:29.237Z,14.10
2019-01-17T15:26:01.834Z,14.10
2019-01-17T15:28:34.488Z,14.10
2019-01-17T15:31:07.114Z,14.10
2019-01-17T15:33:39.704Z,14.10
2019-01-17T15:36:12.334Z,14.10
2019-01-17T15:38:44.975Z,14.10
2019-01-17T15:41:17.557Z,14.10
2019-01-17T15:43:50.122Z,14.10
2019-01-17T15:46:22.761Z,14.20
2019-01-17T15:48:55.350Z,14.20
2019-01-17T15:51:28.041Z,14.20
2019-01-17T15:54:00.671Z,14.20
2019-01-17T15:56:33.298Z,14.20
2019-01-17T15:59:05.898Z,14.20
2019-01-17T16:01:38.511Z,14.20
2019-01-17T16:04:11.102Z,14.20
2019-01-17T16:06:43.784Z,14.20
2019-01-17T16:09:16.365Z,14.20
2019-01-17T16:11:49.004Z,14.30
2019-01-17T16:14:21.608Z,14.30
2019-01-17T16:16:54.235Z,14.20
2019-01-17T16:19:26.821Z,14.20
2019-01-17T16:21:59.458Z,14.20
2019-01-17T16:24:32.099Z,14.30
2019-01-17T16:27:04.718Z,14.20
2019-01-17T16:29:37.308Z,14.20
2019-01-17T16:32:10.005Z,14.30
2019-01-17T16:34:42.598Z,14.30
2019-01-17T16:37:15.281Z,14.20
2019-01-17T16:39:47.916Z,14.30
2019-01-17T16:42:20.552Z,14.20
2019-01-17T16:44:54.522Z,14.20
2019-01-17T16:47:27.331Z,14.20
2019-01-17T16:49:59.902Z,14.20
2019-01-17T16:52:32.736Z,14.20
2019-01-17T16:55:05.418Z,14.20
2019-01-17T16:57:38.131Z,14.20
2019-01-17T17:00:35.726Z,14.20
2019-01-17T17:03:08.421Z,14.20
2019-01-17T17:05:41.015Z,14.20
2019-01-17T17:08:13.734Z,14.20
2019-01-17T17:10:46.349Z,14.20
2019-01-17T17:13:18.979Z,14.20
2019-01-17T17:15:51.592Z,14.20
2019-01-17T17:18:24.241Z,14.10
2019-01-17T17:20:56.833Z,14.20
2019-01-17T17:23:29.449Z,14.10
2019-01-17T17:26:02.099Z,14.10
2019-01-17T17:28:35.910Z,14.10
2019-01-17T17:31:08.502Z,14.10
2019-01-17T17:33:41.153Z,14.00
2019-01-17T17:36:14.079Z,14.00
2019-01-17T17:38:46.734Z,14.10
2019-01-17T17:41:19.446Z,14.00
2019-01-17T17:43:52.056Z,14.00
2019-01-17T17:46:24.734Z,14.00
2019-01-17T17:48:57.376Z,13.90
2019-01-17T17:51:30.042Z,13.90
2019-01-17T17:54:02.677Z,13.90
2019-01-17T17:56:35.397Z,13.90
2019-01-17T17:59:08.163Z,13.90
2019-01-17T18:01:43.129Z,13.90
2019-01-17T18:04:15.815Z,13.90
2019-01-17T18:06:48.452Z,13.90
2019-01-17T18:09:21.102Z,13.90
2019-01-17T18:11:53.701Z,13.90
2019-01-17T18:14:26.348Z,13.90
2019-01-17T18:16:58.932Z,13.90
2019-01-17T18:19:31.604Z,13.90
2019-01-17T18:22:04.303Z,13.90
2019-01-17T18:24:36.923Z,13.90
2019-01-17T18:27:09.610Z,13.90
2019-01-17T18:29:42.341Z,13.90
2019-01-17T18:32:14.962Z,13.90
2019-01-17T18:34:47.696Z,13.90
2019-01-17T18:37:20.409Z,13.90
2019-01-17T18:39:53.032Z,13.90
2019-01-17T18:42:25.688Z,13.90
2019-01-17T18:44:58.324Z,13.90
2019-01-17T18:47:30.930Z,13.80
2019-01-17T18:50:03.824Z,13.80
2019-01-17T18:52:36.561Z,13.80
2019-01-17T18:55:09.307Z,13.80
2019-01-17T18:57:41.909Z,13.80
2019-01-17T19:00:22.268Z,13.70
2019-01-17T19:02:54.977Z,13.80
2019-01-17T19:05:27.607Z,13.70
2019-01-17T19:08:00.209Z,13.70
2019-01-17T19:10:32.846Z,13.70
2019-01-17T19:13:05.516Z,13.70
2019-01-17T19:15:41.571Z,13.70
2019-01-17T19:18:14.175Z,13.70
2019-01-17T19:20:46.789Z,13.70
2019-01-17T19:23:19.391Z,13.70
2019-01-17T19:25:54.100Z,13.60
2019-01-17T19:28:26.719Z,13.70
2019-01-17T19:30:59.389Z,13.70
2019-01-17T19:33:32.254Z,13.60
2019-01-17T19:36:04.905Z,13.70
2019-01-17T19:38:37.598Z,13.60
2019-01-17T19:41:10.407Z,13.70
2019-01-17T19:43:43.007Z,13.60
2019-01-17T19:46:15.695Z,13.60
2019-01-17T19:48:48.280Z,13.60
2019-01-17T19:51:20.900Z,13.60
2019-01-17T19:53:53.581Z,13.60
2019-01-17T19:56:26.948Z,13.60
2019-01-17T19:58:59.521Z,13.60
2019-01-17T20:01:32.441Z,13.60
2019-01-17T20:04:05.105Z,13.60
2019-01-17T20:06:37.790Z,13.60
2019-01-17T20:09:13.024Z,13.60
2019-01-17T20:11:45.669Z,13.60
2019-01-17T20:14:18.399Z,13.60
2019-01-17T20:16:51.047Z,13.60
2019-01-17T20:19:24.704Z,13.60
2019-01-17T20:21:57.307Z,13.60
2019-01-17T20:24:30.039Z,13.60
2019-01-17T20:27:02.856Z,13.60
2019-01-17T20:29:35.565Z,13.60
2019-01-17T20:32:08.287Z,13.60
2019-01-17T20:34:40.891Z,13.60
2019-01-17T20:37:13.480Z,13.60
2019-01-17T20:39:46.135Z,13.60
2019-01-17T20:42:18.859Z,13.50
2019-01-17T20:44:51.529Z,13.60
2019-01-17T20:47:24.254Z,13.50
2019-01-17T20:49:56.850Z,13.50
2019-01-17T20:52:29.547Z,13.50
2019-01-17T20:55:02.147Z,13.50
2019-01-17T20:57:34.774Z,13.50
2019-01-17T21:00:37.361Z,13.50
2019-01-17T21:03:12.395Z,13.50
2019-01-17T21:05:44.956Z,13.50
2019-01-17T21:08:17.578Z,13.50
2019-01-17T21:10:50.164Z,13.40
2019-01-17T21:13:22.891Z,13.40
2019-01-17T21:16:01.197Z,13.40
2019-01-17T21:18:29.858Z,13.40
2019-01-17T21:21:02.503Z,13.40
2019-01-17T21:23:35.112Z,13.30
2019-01-17T21:26:07.695Z,13.30
2019-01-17T21:28:40.344Z,13.30
2019-01-17T21:31:12.938Z,13.20
2019-01-17T21:33:45.635Z,13.20
2019-01-17T21:36:18.417Z,13.20
2019-01-17T21:38:51.057Z,13.20
2019-01-17T21:41:23.721Z,13.10
2019-01-17T21:43:56.359Z,13.10
2019-01-17T21:46:28.960Z,13.10
2019-01-17T21:49:01.594Z,13.10
2019-01-17T21:51:34.197Z,13.00
2019-01-17T21:54:06.831Z,13.00
2019-01-17T21:56:39.412Z,13.00
2019-01-17T21:59:12.045Z,13.00
2019-01-17T22:01:44.650Z,12.90
2019-01-17T22:04:17.277Z,12.90
2019-01-17T22:06:54.423Z,12.90
2019-01-17T22:09:27.094Z,12.90
2019-01-17T22:11:59.695Z,12.90
2019-01-17T22:14:32.320Z,12.90
2019-01-17T22:17:04.934Z,12.90
2019-01-17T22:19:37.549Z,12.80
2019-01-17T22:22:10.138Z,12.90
2019-01-17T22:24:42.845Z,12.80
2019-01-17T22:27:15.406Z,12.90
2019-01-17T22:29:48.032Z,12.90
2019-01-17T22:32:20.642Z,12.90
2019-01-17T22:34:53.288Z,12.90
2019-01-17T22:37:25.869Z,12.90
2019-01-17T22:39:58.471Z,12.80
2019-01-17T22:42:31.101Z,12.80
2019-01-17T22:45:03.766Z,12.80
2019-01-17T22:47:36.381Z,12.80
2019-01-17T22:50:12.186Z,12.80
2019-01-17T22:52:44.956Z,12.90
2019-01-17T22:55:17.554Z,12.80
2019-01-17T22:57:50.171Z,12.80
2019-01-17T23:00:49.965Z,12.80
2019-01-17T23:03:37.072Z,12.80
2019-01-17T23:06:09.697Z,12.80
2019-01-17T23:08:42.376Z,12.90
2019-01-17T23:11:14.977Z,12.80
2019-01-17T23:13:47.588Z,12.80
2019-01-17T23:16:20.248Z,12.80
2019-01-17T23:18:52.840Z,12.80
2019-01-17T23:21:25.456Z,12.80
2019-01-17T23:23:58.042Z,12.80
2019-01-17T23:26:31.831Z,12.80
2019-01-17T23:29:04.482Z,12.80
2019-01-17T23:31:38.171Z,12.80
2019-01-17T23:34:10.765Z,12.90
2019-01-17T23:36:43.395Z,12.80
2019-01-17T23:39:16.010Z,12.80
2019-01-17T23:41:48.620Z,12.90
2019-01-17T23:44:21.222Z,12.80
2019-01-17T23:46:53.847Z,12.90
2019-01-17T23:49:26.426Z,12.90
2019-01-17T23:51:59.062Z,12.90
2019-01-17T23:54:31.664Z,12.80
2019-01-17T23:57:04.329Z,12.80
2019-01-17T23:59:37.028Z,12.80
